Time,TemperatureF,DewpointF,PressureIn,WindDirection,WindDirectionDegrees,WindSpeedMPH,WindSpeedGustMPH,Humidity,HourlyPrecipIn,Conditions,Clouds,dailyrainin,SoftwareType,DateUTC
2013-06-08 00:00:00,77.2,63.2,29.70,North,0,0.0,0.0,62,0.00,,,0.00,WUHU216HW,2013-06-08 07:00:00,
2013-06-08 00:05:00,77.0,63.0,29.70,North,0,0.0,0.0,62,0.00,,,0.00,WUHU216HW,2013-06-08 07:05:00,
2013-06-08 00:10:00,77.0,64.4,29.70,SW,224,1.2,1.6,65,0.00,,,0.00,WUHU216HW,2013-06-08 07:10:00,
2013-06-08 00:15:00,76.9,63.7,29.70,West,268,0.7,1.1,64,0.00,,,0.00,WUHU216HW,2013-06-08 07:15:00,
2013-06-08 00:20:00,77.0,64.4,29.70,NW,318,0.3,0.4,65,0.00,,,0.00,WUHU216HW,2013-06-08 07:20:00,
2013-06-08 00:25:00,77.6,64.5,29.70,North,0,0.0,0.0,64,0.00,,,0.00,WUHU216HW,2013-06-08 07:25:00,
2013-06-08 00:30:00,77.6,64.5,29.70,North,0,0.0,0.0,64,0.00,,,0.00,WUHU216HW,2013-06-08 07:30:00,
2013-06-08 00:35:00,77.4,64.3,29.70,North,0,0.0,0.0,64,0.00,,,0.00,WUHU216HW,2013-06-08 07:35:00,
2013-06-08 00:40:00,77.0,63.9,29.70,North,0,0.4,0.9,64,0.00,,,0.00,WUHU216HW,2013-06-08 07:40:00,
2013-06-08 00:45:00,76.7,63.5,29.70,North,0,0.0,0.0,64,0.00,,,0.00,WUHU216HW,2013-06-08 07:45:00,
2013-06-08 00:50:00,76.3,63.6,29.70,North,0,0.0,0.0,65,0.00,,,0.00,WUHU216HW,2013-06-08 07:50:00,
2013-06-08 00:55:00,76.0,63.7,29.69,North,0,0.0,0.0,66,0.00,,,0.00,WUHU216HW,2013-06-08 07:55:00,
2013-06-08 01:00:00,76.0,63.7,29.70,North,0,0.0,0.0,66,0.00,,,0.00,WUHU216HW,2013-06-08 08:00:00,
2013-06-08 01:05:00,76.0,64.2,29.69,North,0,0.0,0.0,67,0.00,,,0.00,WUHU216HW,2013-06-08 08:05:00,
2013-06-08 01:10:00,75.8,64.0,29.69,North,0,0.0,0.0,67,0.00,,,0.00,WUHU216HW,2013-06-08 08:10:00,
2013-06-08 01:15:00,75.6,64.7,29.69,North,0,0.0,0.0,69,0.00,,,0.00,WUHU216HW,2013-06-08 08:15:00,
2013-06-08 01:20:00,75.6,64.7,29.69,North,0,0.0,0.0,69,0.00,,,0.00,WUHU216HW,2013-06-08 08:20:00,
2013-06-08 01:25:00,75.8,65.3,29.69,North,0,0.0,0.0,70,0.00,,,0.00,WUHU216HW,2013-06-08 08:25:00,
2013-06-08 01:30:00,76.0,65.5,29.69,SE,135,0.5,0.7,70,0.00,,,0.00,WUHU216HW,2013-06-08 08:30:00,
2013-06-08 01:35:00,76.1,65.3,29.69,SE,135,0.4,0.7,69,0.00,,,0.00,WUHU216HW,2013-06-08 08:35:00,
2013-06-08 01:40:00,76.3,65.4,29.69,North,0,0.0,0.0,69,0.00,,,0.00,WUHU216HW,2013-06-08 08:40:00,
2013-06-08 01:45:00,76.5,65.2,29.69,South,178,0.4,0.7,68,0.00,,,0.00,WUHU216HW,2013-06-08 08:45:00,
2013-06-08 01:50:00,76.7,64.4,29.69,SSE,152,0.4,0.7,66,0.00,,,0.00,WUHU216HW,2013-06-08 08:50:00,
2013-06-08 01:55:00,76.7,64.4,29.69,North,0,0.0,0.0,66,0.00,,,0.00,WUHU216HW,2013-06-08 08:55:00,
2013-06-08 02:00:00,76.7,64.4,29.69,North,0,0.0,0.0,66,0.00,,,0.00,WUHU216HW,2013-06-08 09:00:00,
2013-06-08 02:05:00,76.7,64.0,29.69,West,277,1.9,2.7,65,0.00,,,0.00,WUHU216HW,2013-06-08 09:05:00,
2013-06-08 02:10:00,76.5,64.3,29.69,WNW,284,1.5,2.5,66,0.00,,,0.00,WUHU216HW,2013-06-08 09:10:00,
2013-06-08 02:15:00,76.3,64.1,29.69,West,275,1.4,2.2,66,0.00,,,0.00,WUHU216HW,2013-06-08 09:15:00,
2013-06-08 02:20:00,76.3,64.1,29.69,WNW,288,0.5,1.1,66,0.00,,,0.00,WUHU216HW,2013-06-08 09:20:00,
2013-06-08 02:25:00,76.0,63.7,29.69,NNW,331,0.3,0.4,66,0.00,,,0.00,WUHU216HW,2013-06-08 09:25:00,
2013-06-08 02:30:00,75.6,63.8,29.69,North,349,0.5,0.9,67,0.00,,,0.00,WUHU216HW,2013-06-08 09:30:00,
2013-06-08 02:35:00,75.1,63.8,29.69,NNE,20,0.3,0.4,68,0.00,,,0.00,WUHU216HW,2013-06-08 09:35:00,
2013-06-08 02:40:00,74.7,63.9,29.69,ESE,106,0.4,0.4,69,0.00,,,0.00,WUHU216HW,2013-06-08 09:40:00,
2013-06-08 02:45:00,74.3,64.0,29.69,SE,135,0.2,0.4,70,0.00,,,0.00,WUHU216HW,2013-06-08 09:45:00,
2013-06-08 02:50:00,74.0,63.6,29.69,North,0,0.0,0.0,70,0.00,,,0.00,WUHU216HW,2013-06-08 09:50:00,
2013-06-08 02:55:00,73.6,63.7,29.69,North,0,0.0,0.0,71,0.00,,,0.00,WUHU216HW,2013-06-08 09:55:00,
2013-06-08 03:00:00,73.4,63.5,29.69,North,0,0.0,0.0,71,0.00,,,0.00,WUHU216HW,2013-06-08 10:00:00,
2013-06-08 03:05:00,73.4,63.5,29.69,North,0,0.0,0.0,71,0.00,,,0.00,WUHU216HW,2013-06-08 10:05:00,
2013-06-08 03:10:00,73.4,63.2,29.69,North,0,0.0,0.0,70,0.00,,,0.00,WUHU216HW,2013-06-08 10:10:00,
2013-06-08 03:15:00,73.4,63.2,29.69,North,0,0.0,0.0,70,0.00,,,0.00,WUHU216HW,2013-06-08 10:15:00,
2013-06-08 03:20:00,73.4,63.2,29.69,ESE,102,0.3,0.4,70,0.00,,,0.00,WUHU216HW,2013-06-08 10:20:00,
2013-06-08 03:25:00,73.1,62.8,29.69,North,0,0.0,0.0,70,0.00,,,0.00,WUHU216HW,2013-06-08 10:25:00,
2013-06-08 03:30:00,73.1,62.8,29.69,North,0,0.0,0.0,70,0.00,,,0.00,WUHU216HW,2013-06-08 10:30:00,
2013-06-08 03:35:00,73.1,63.2,29.69,North,0,0.0,0.0,71,0.00,,,0.00,WUHU216HW,2013-06-08 10:35:00,
2013-06-08 03:40:00,72.7,62.8,29.69,North,0,0.0,0.0,71,0.00,,,0.00,WUHU216HW,2013-06-08 10:40:00,
2013-06-08 03:45:00,72.7,63.2,29.69,ENE,68,0.7,0.9,72,0.00,,,0.00,WUHU216HW,2013-06-08 10:45:00,
2013-06-08 03:50:00,72.7,62.8,29.69,ENE,57,0.3,0.4,71,0.00,,,0.00,WUHU216HW,2013-06-08 10:50:00,
2013-06-08 03:55:00,72.5,63.5,29.69,North,0,0.3,0.4,73,0.00,,,0.00,WUHU216HW,2013-06-08 10:55:00,
2013-06-08 04:00:00,72.4,62.8,29.68,NNE,15,0.2,0.4,72,0.00,,,0.00,WUHU216HW,2013-06-08 11:00:00,
2013-06-08 04:05:00,72.4,62.8,29.69,North,0,0.0,0.0,72,0.00,,,0.00,WUHU216HW,2013-06-08 11:05:00,
2013-06-08 04:10:00,72.4,62.8,29.69,NNE,23,0.2,0.2,72,0.00,,,0.00,WUHU216HW,2013-06-08 11:10:00,
2013-06-08 04:15:00,72.4,62.8,29.68,North,0,0.0,0.0,72,0.00,,,0.00,WUHU216HW,2013-06-08 11:15:00,
2013-06-08 04:20:00,72.2,62.6,29.68,North,0,0.0,0.0,72,0.00,,,0.00,WUHU216HW,2013-06-08 11:20:00,
2013-06-08 04:25:00,72.2,62.6,29.68,North,0,0.0,0.0,72,0.00,,,0.00,WUHU216HW,2013-06-08 11:25:00,
2013-06-08 04:30:00,72.0,62.5,29.68,North,0,0.0,0.0,72,0.00,,,0.00,WUHU216HW,2013-06-08 11:30:00,
2013-06-08 04:35:00,71.8,62.3,29.69,North,0,0.0,0.0,72,0.00,,,0.00,WUHU216HW,2013-06-08 11:35:00,
2013-06-08 04:40:00,71.8,62.3,29.69,North,0,0.0,0.0,72,0.00,,,0.00,WUHU216HW,2013-06-08 11:40:00,
2013-06-08 04:45:00,71.6,62.1,29.68,North,0,0.0,0.0,72,0.00,,,0.00,WUHU216HW,2013-06-08 11:45:00,
2013-06-08 04:50:00,71.6,62.6,29.69,NNE,23,0.2,0.2,73,0.00,,,0.00,WUHU216HW,2013-06-08 11:50:00,
2013-06-08 04:55:00,71.5,62.4,29.68,NNE,23,0.4,0.4,73,0.00,,,0.00,WUHU216HW,2013-06-08 11:55:00,
2013-06-08 05:00:00,71.5,62.4,29.69,North,0,0.0,0.0,73,0.00,,,0.00,WUHU216HW,2013-06-08 12:00:00,
2013-06-08 05:05:00,71.5,62.4,29.69,North,0,0.0,0.0,73,0.00,,,0.00,WUHU216HW,2013-06-08 12:05:00,
2013-06-08 05:10:00,71.5,62.4,29.69,North,0,0.0,0.0,73,0.00,,,0.00,WUHU216HW,2013-06-08 12:10:00,
2013-06-08 05:15:00,71.3,62.2,29.69,North,0,0.0,0.0,73,0.00,,,0.00,WUHU216HW,2013-06-08 12:15:00,
2013-06-08 05:20:00,71.3,62.6,29.69,NE,55,0.4,0.7,74,0.00,,,0.00,WUHU216HW,2013-06-08 12:20:00,
2013-06-08 05:25:00,71.1,62.4,29.69,NNE,15,0.2,0.4,74,0.00,,,0.00,WUHU216HW,2013-06-08 12:25:00,
2013-06-08 05:30:00,71.1,62.4,29.69,North,0,0.4,0.4,74,0.00,,,0.00,WUHU216HW,2013-06-08 12:30:00,
2013-06-08 05:35:00,71.1,62.4,29.69,North,0,0.0,0.0,74,0.00,,,0.00,WUHU216HW,2013-06-08 12:35:00,
2013-06-08 05:40:00,71.1,62.4,29.69,North,0,0.0,0.0,74,0.00,,,0.00,WUHU216HW,2013-06-08 12:40:00,
2013-06-08 05:45:00,71.1,62.4,29.69,North,0,0.0,0.0,74,0.00,,,0.00,WUHU216HW,2013-06-08 12:45:00,
2013-06-08 05:50:00,71.1,62.4,29.69,North,0,0.4,0.4,74,0.00,,,0.00,WUHU216HW,2013-06-08 12:50:00,
2013-06-08 05:55:00,70.9,62.2,29.69,North,0,0.2,0.4,74,0.00,,,0.00,WUHU216HW,2013-06-08 12:55:00,
2013-06-08 06:00:00,71.3,62.6,29.70,NNW,338,0.2,0.2,74,0.00,,,0.00,WUHU216HW,2013-06-08 13:00:00,
2013-06-08 06:05:00,71.6,62.9,29.70,NNW,338,0.2,0.2,74,0.00,,,0.00,WUHU216HW,2013-06-08 13:05:00,
2013-06-08 06:10:00,72.7,64.4,29.70,North,359,0.8,1.1,75,0.00,,,0.00,WUHU216HW,2013-06-08 13:10:00,
2013-06-08 06:15:00,74.0,64.8,29.70,North,351,0.3,0.9,73,0.00,,,0.00,WUHU216HW,2013-06-08 13:15:00,
2013-06-08 06:20:00,75.6,65.5,29.70,NNE,23,0.2,0.2,71,0.00,,,0.00,WUHU216HW,2013-06-08 13:20:00,
2013-06-08 06:25:00,77.4,66.5,29.70,North,0,0.0,0.0,69,0.00,,,0.00,WUHU216HW,2013-06-08 13:25:00,
2013-06-08 06:31:00,78.8,66.5,29.70,North,0,0.0,0.0,66,0.00,,,0.00,WUHU216HW,2013-06-08 13:31:00,
2013-06-08 06:36:00,79.9,67.1,29.70,North,357,0.3,0.4,65,0.00,,,0.00,WUHU216HW,2013-06-08 13:36:00,
2013-06-08 06:41:00,80.6,67.3,29.70,NNW,338,0.4,0.4,64,0.00,,,0.00,WUHU216HW,2013-06-08 13:41:00,
2013-06-08 06:46:00,81.7,67.0,29.70,NNW,329,0.6,1.3,61,0.00,,,0.00,WUHU216HW,2013-06-08 13:46:00,
2013-06-08 06:51:00,83.7,69.3,29.70,WNW,293,1.1,1.3,62,0.00,,,0.00,WUHU216HW,2013-06-08 13:51:00,
2013-06-08 06:56:00,86.4,69.8,29.70,WNW,286,0.8,1.6,58,0.00,,,0.00,WUHU216HW,2013-06-08 13:56:00,
2013-06-08 07:01:00,88.2,70.6,29.70,WNW,293,0.4,0.4,56,0.00,,,0.00,WUHU216HW,2013-06-08 14:01:00,
2013-06-08 07:06:00,89.6,70.2,29.70,NW,314,0.8,1.3,53,0.00,,,0.00,WUHU216HW,2013-06-08 14:06:00,
2013-06-08 07:11:00,90.5,71.0,29.70,WNW,298,0.9,1.3,53,0.00,,,0.00,WUHU216HW,2013-06-08 14:11:00,
2013-06-08 07:16:00,92.5,71.7,29.70,WNW,286,0.4,0.9,51,0.00,,,0.00,WUHU216HW,2013-06-08 14:16:00,
2013-06-08 07:21:00,94.3,72.3,29.70,SW,236,0.3,0.7,49,0.00,,,0.00,WUHU216HW,2013-06-08 14:21:00,
2013-06-08 07:26:00,95.9,72.5,29.70,SW,225,0.4,0.7,47,0.00,,,0.00,WUHU216HW,2013-06-08 14:26:00,
2013-06-08 07:31:00,97.2,72.3,29.70,SW,222,0.8,1.3,45,0.00,,,0.00,WUHU216HW,2013-06-08 14:31:00,
2013-06-08 07:36:00,98.6,72.2,29.70,SSW,206,0.6,1.1,43,0.00,,,0.00,WUHU216HW,2013-06-08 14:36:00,
2013-06-08 07:41:00,99.4,72.8,29.70,WSW,243,0.7,1.1,43,0.00,,,0.00,WUHU216HW,2013-06-08 14:41:00,
2013-06-08 07:46:00,100.8,72.2,29.70,West,270,1.0,2.0,40,0.00,,,0.00,WUHU216HW,2013-06-08 14:46:00,
2013-06-08 07:51:00,101.0,73.0,29.70,WSW,237,1.0,1.6,41,0.00,,,0.00,WUHU216HW,2013-06-08 14:51:00,
2013-06-08 07:56:00,102.2,73.4,29.70,West,272,0.9,1.3,40,0.00,,,0.00,WUHU216HW,2013-06-08 14:56:00,
2013-06-08 08:01:00,99.4,73.5,29.70,West,278,1.1,2.2,44,0.00,,,0.00,WUHU216HW,2013-06-08 15:01:00,
2013-06-08 08:06:00,92.2,66.3,29.71,West,281,1.0,1.8,43,0.00,,,0.00,WUHU216HW,2013-06-08 15:06:00,
2013-06-08 08:11:00,89.3,67.0,29.71,WSW,255,1.0,2.5,48,0.00,,,0.00,WUHU216HW,2013-06-08 15:11:00,
2013-06-08 08:16:00,88.6,67.6,29.71,SW,230,1.2,2.2,50,0.00,,,0.00,WUHU216HW,2013-06-08 15:16:00,
2013-06-08 08:21:00,88.0,66.5,29.71,WSW,243,0.8,2.2,49,0.00,,,0.00,WUHU216HW,2013-06-08 15:21:00,
2013-06-08 08:26:00,87.7,66.2,29.71,West,263,1.3,3.1,49,0.00,,,0.00,WUHU216HW,2013-06-08 15:26:00,
2013-06-08 08:31:00,87.5,66.0,29.71,West,270,0.9,1.6,49,0.00,,,0.00,WUHU216HW,2013-06-08 15:31:00,
2013-06-08 08:36:00,87.8,65.7,29.71,WNW,288,2.0,2.5,48,0.00,,,0.00,WUHU216HW,2013-06-08 15:36:00,
2013-06-08 08:41:00,88.4,66.2,29.70,WSW,256,1.0,2.2,48,0.00,,,0.00,WUHU216HW,2013-06-08 15:41:00,
2013-06-08 08:46:00,88.9,66.0,29.70,SSW,193,1.4,2.2,47,0.00,,,0.00,WUHU216HW,2013-06-08 15:46:00,
2013-06-08 08:51:00,89.5,65.8,29.71,NW,323,0.6,1.1,46,0.00,,,0.00,WUHU216HW,2013-06-08 15:51:00,
2013-06-08 08:56:00,90.0,66.3,29.71,SSW,196,1.6,2.0,46,0.00,,,0.00,WUHU216HW,2013-06-08 15:56:00,
2013-06-08 09:01:00,90.5,66.2,29.70,SSE,155,0.9,1.6,45,0.00,,,0.00,WUHU216HW,2013-06-08 16:01:00,
2013-06-08 09:06:00,90.9,65.8,29.71,SSW,204,1.4,2.2,44,0.00,,,0.00,WUHU216HW,2013-06-08 16:06:00,
2013-06-08 09:11:00,91.8,66.0,29.71,SSE,148,1.5,2.7,43,0.00,,,0.00,WUHU216HW,2013-06-08 16:11:00,
2013-06-08 09:16:00,92.0,66.2,29.70,WSW,243,1.1,2.2,43,0.00,,,0.00,WUHU216HW,2013-06-08 16:16:00,
2013-06-08 09:21:00,92.7,66.8,29.70,SW,235,1.6,3.1,43,0.00,,,0.00,WUHU216HW,2013-06-08 16:21:00,
2013-06-08 09:26:00,92.9,66.3,29.70,West,278,2.2,2.5,42,0.00,,,0.00,WUHU216HW,2013-06-08 16:26:00,
2013-06-08 09:31:00,92.9,66.3,29.70,WNW,293,2.2,2.5,42,0.00,,,0.00,WUHU216HW,2013-06-08 16:31:00,
2013-06-08 10:05:00,95.6,64.2,29.70,South,184,2.4,4.5,36,0.00,,,0.00,WUHU216HW,2013-06-08 17:05:00,
2013-06-08 10:10:00,95.6,65.0,29.70,South,191,1.6,3.4,37,0.00,,,0.00,WUHU216HW,2013-06-08 17:10:00,
2013-06-08 10:15:00,95.8,65.2,29.69,South,169,1.9,4.3,37,0.00,,,0.00,WUHU216HW,2013-06-08 17:15:00,
2013-06-08 10:20:00,96.3,64.8,29.69,SSE,163,2.5,4.0,36,0.00,,,0.00,WUHU216HW,2013-06-08 17:20:00,
2013-06-08 10:25:00,96.8,65.3,29.69,South,170,2.4,3.4,36,0.00,,,0.00,WUHU216HW,2013-06-08 17:25:00,
2013-06-08 10:30:00,97.4,65.8,29.69,South,189,2.0,3.1,36,0.00,,,0.00,WUHU216HW,2013-06-08 17:30:00,
2013-06-08 10:35:00,97.4,64.9,29.69,WSW,239,1.7,2.5,35,0.00,,,0.00,WUHU216HW,2013-06-08 17:35:00,
2013-06-08 10:40:00,97.4,65.8,29.69,SSE,166,3.0,4.3,36,0.00,,,0.00,WUHU216HW,2013-06-08 17:40:00,
2013-06-08 10:45:00,97.6,65.1,29.69,South,180,1.4,2.7,35,0.00,,,0.00,WUHU216HW,2013-06-08 17:45:00,
2013-06-08 10:50:00,97.9,65.4,29.69,South,184,2.7,4.0,35,0.00,,,0.00,WUHU216HW,2013-06-08 17:50:00,
2013-06-08 10:55:00,98.5,65.9,29.69,South,183,2.8,4.3,35,0.00,,,0.00,WUHU216HW,2013-06-08 17:55:00,
2013-06-08 11:00:00,98.6,65.3,29.69,SSW,206,2.4,4.7,34,0.00,,,0.00,WUHU216HW,2013-06-08 18:00:00,
2013-06-08 11:05:00,99.0,65.5,29.69,SSW,206,2.5,4.3,34,0.00,,,0.00,WUHU216HW,2013-06-08 18:05:00,
2013-06-08 11:10:00,99.4,65.9,29.69,SW,231,2.6,4.7,34,0.00,,,0.00,WUHU216HW,2013-06-08 18:10:00,
2013-06-08 11:15:00,99.7,67.1,29.69,West,259,2.2,4.7,35,0.00,,,0.00,WUHU216HW,2013-06-08 18:15:00,
2013-06-08 11:20:00,99.9,66.3,29.69,SW,217,2.3,4.0,34,0.00,,,0.00,WUHU216HW,2013-06-08 18:20:00,
2013-06-08 11:25:00,100.1,66.5,29.68,WSW,255,3.1,6.3,34,0.00,,,0.00,WUHU216HW,2013-06-08 18:25:00,
2013-06-08 11:30:00,99.9,66.3,29.68,West,265,2.0,3.8,34,0.00,,,0.00,WUHU216HW,2013-06-08 18:30:00,
2013-06-08 11:35:00,99.9,66.3,29.68,WNW,287,2.3,4.7,34,0.00,,,0.00,WUHU216HW,2013-06-08 18:35:00,
2013-06-08 11:40:00,100.1,66.5,29.68,West,274,3.2,5.8,34,0.00,,,0.00,WUHU216HW,2013-06-08 18:40:00,
2013-06-08 11:45:00,100.1,65.7,29.68,West,262,2.4,4.5,33,0.00,,,0.00,WUHU216HW,2013-06-08 18:45:00,
2013-06-08 11:50:00,100.4,66.1,29.68,SW,226,2.3,4.0,33,0.00,,,0.00,WUHU216HW,2013-06-08 18:50:00,
2013-06-08 11:55:00,100.8,66.3,29.68,South,172,2.5,4.0,33,0.00,,,0.00,WUHU216HW,2013-06-08 18:55:00,
2013-06-08 12:00:00,101.3,66.8,29.68,WNW,286,3.3,5.4,33,0.00,,,0.00,WUHU216HW,2013-06-08 19:00:00,
2013-06-08 12:05:00,101.2,66.6,29.67,WNW,294,3.1,5.8,33,0.00,,,0.00,WUHU216HW,2013-06-08 19:05:00,
2013-06-08 12:10:00,101.3,66.8,29.67,NW,310,2.5,6.3,33,0.00,,,0.00,WUHU216HW,2013-06-08 19:10:00,
2013-06-08 12:15:00,101.2,66.6,29.67,West,270,3.0,5.4,33,0.00,,,0.00,WUHU216HW,2013-06-08 19:15:00,
2013-06-08 12:20:00,101.3,66.8,29.67,WNW,291,3.2,5.4,33,0.00,,,0.00,WUHU216HW,2013-06-08 19:20:00,
2013-06-08 12:25:00,101.9,67.2,29.67,NE,38,1.3,3.6,33,0.00,,,0.00,WUHU216HW,2013-06-08 19:25:00,
2013-06-08 12:30:00,102.8,66.3,29.67,SSE,151,3.3,5.1,31,0.00,,,0.00,WUHU216HW,2013-06-08 19:30:00,
2013-06-08 12:35:00,103.3,66.8,29.67,South,184,1.9,4.0,31,0.00,,,0.00,WUHU216HW,2013-06-08 19:35:00,
2013-06-08 12:40:00,103.3,66.8,29.67,South,176,2.0,4.0,31,0.00,,,0.00,WUHU216HW,2013-06-08 19:40:00,
2013-06-08 12:45:00,103.3,66.0,29.67,WSW,237,2.7,4.9,30,0.00,,,0.00,WUHU216HW,2013-06-08 19:45:00,
2013-06-08 12:50:00,103.5,67.0,29.67,SSW,204,1.8,3.4,31,0.00,,,0.00,WUHU216HW,2013-06-08 19:50:00,
2013-06-08 12:55:00,103.7,66.2,29.66,WSW,241,2.2,3.4,30,0.00,,,0.00,WUHU216HW,2013-06-08 19:55:00,
2013-06-08 13:00:00,103.5,67.0,29.66,West,275,1.7,3.1,31,0.00,,,0.00,WUHU216HW,2013-06-08 20:00:00,
2013-06-08 13:05:00,103.7,67.2,29.66,West,280,1.7,4.5,31,0.00,,,0.00,WUHU216HW,2013-06-08 20:05:00,
2013-06-08 13:10:00,103.9,66.4,29.66,SSW,210,2.5,3.4,30,0.00,,,0.00,WUHU216HW,2013-06-08 20:10:00,
2013-06-08 13:15:00,104.4,66.9,29.66,WSW,247,2.0,3.6,30,0.00,,,0.00,WUHU216HW,2013-06-08 20:15:00,
2013-06-08 13:20:00,104.6,67.1,29.66,SW,228,2.3,5.4,30,0.00,,,0.00,WUHU216HW,2013-06-08 20:20:00,
2013-06-08 13:25:00,104.4,66.9,29.66,WSW,247,1.7,4.0,30,0.00,,,0.00,WUHU216HW,2013-06-08 20:25:00,
2013-06-08 13:30:00,104.8,67.1,29.66,South,187,3.0,4.7,30,0.00,,,0.00,WUHU216HW,2013-06-08 20:30:00,
2013-06-08 13:35:00,105.5,67.8,29.65,South,187,2.2,5.4,30,0.00,,,0.00,WUHU216HW,2013-06-08 20:35:00,
2013-06-08 13:40:00,105.3,66.4,29.65,WSW,246,2.5,4.0,29,0.00,,,0.00,WUHU216HW,2013-06-08 20:40:00,
2013-06-08 13:45:00,105.1,66.3,29.66,South,182,2.7,4.9,29,0.00,,,0.00,WUHU216HW,2013-06-08 20:45:00,
2013-06-08 13:50:00,105.1,66.3,29.65,WSW,255,2.3,6.3,29,0.00,,,0.00,WUHU216HW,2013-06-08 20:50:00,
2013-06-08 13:55:00,105.3,66.4,29.65,WNW,297,3.0,5.8,29,0.00,,,0.00,WUHU216HW,2013-06-08 20:55:00,
2013-06-08 14:00:00,105.1,66.3,29.65,West,279,3.9,5.6,29,0.00,,,0.00,WUHU216HW,2013-06-08 21:00:00,
2013-06-08 14:05:00,105.1,66.3,29.65,West,274,2.6,5.1,29,0.00,,,0.00,WUHU216HW,2013-06-08 21:05:00,
2013-06-08 14:10:00,105.5,66.6,29.64,WNW,299,2.5,4.0,29,0.00,,,0.00,WUHU216HW,2013-06-08 21:10:00,
2013-06-08 14:15:00,106.0,67.1,29.64,WNW,290,2.6,4.9,29,0.00,,,0.00,WUHU216HW,2013-06-08 21:15:00,
2013-06-08 14:20:00,106.2,64.9,29.64,WNW,295,2.2,5.1,27,0.00,,,0.00,WUHU216HW,2013-06-08 21:20:00,
2013-06-08 14:25:00,106.0,67.1,29.64,SSW,198,1.5,3.4,29,0.00,,,0.00,WUHU216HW,2013-06-08 21:25:00,
2013-06-08 14:30:00,106.0,67.1,29.64,West,278,3.3,5.6,29,0.00,,,0.00,WUHU216HW,2013-06-08 21:30:00,
2013-06-08 14:35:00,106.0,64.7,29.64,WNW,285,3.3,4.7,27,0.00,,,0.00,WUHU216HW,2013-06-08 21:35:00,
2013-06-08 14:43:00,106.0,65.9,29.63,NNW,338,1.7,4.9,28,0.00,,,0.00,WUHU216HW,2013-06-08 21:43:00,
2013-06-08 14:52:00,106.0,64.7,29.63,WNW,290,3.3,5.1,27,0.00,,,0.00,WUHU216HW,2013-06-08 21:52:00,
2013-06-08 15:01:00,106.6,65.3,29.63,West,261,3.0,5.1,27,0.00,,,0.00,WUHU216HW,2013-06-08 22:01:00,
2013-06-08 15:09:00,106.6,66.4,29.62,WNW,294,2.6,5.6,28,0.00,,,0.00,WUHU216HW,2013-06-08 22:09:00,
2013-06-08 15:18:00,106.7,65.4,29.62,WNW,292,4.3,6.7,27,0.00,,,0.00,WUHU216HW,2013-06-08 22:18:00,
2013-06-08 15:27:00,106.7,64.3,29.62,WNW,287,3.9,6.5,26,0.00,,,0.00,WUHU216HW,2013-06-08 22:27:00,
2013-06-08 15:36:00,106.9,64.5,29.61,WNW,297,2.9,4.9,26,0.00,,,0.00,WUHU216HW,2013-06-08 22:36:00,
2013-06-08 15:53:00,107.3,64.7,29.61,West,272,3.2,5.8,26,0.00,,,0.00,WUHU216HW,2013-06-08 22:53:00,
2013-06-08 15:59:00,107.3,64.7,29.61,WNW,302,3.5,5.8,26,0.00,,,0.00,WUHU216HW,2013-06-08 22:59:00,
2013-06-08 16:04:00,107.1,64.5,29.61,NW,305,3.4,5.8,26,0.00,,,0.00,WUHU216HW,2013-06-08 23:04:00,
2013-06-08 16:09:00,107.1,64.5,29.61,NW,310,2.7,5.6,26,0.00,,,0.00,WUHU216HW,2013-06-08 23:09:00,
2013-06-08 16:14:00,106.9,64.5,29.61,NW,315,3.7,6.3,26,0.00,,,0.00,WUHU216HW,2013-06-08 23:14:00,
2013-06-08 16:19:00,106.9,64.5,29.61,NW,316,3.4,5.8,26,0.00,,,0.00,WUHU216HW,2013-06-08 23:19:00,
2013-06-08 16:24:00,106.9,64.5,29.60,NW,316,3.2,6.3,26,0.00,,,0.00,WUHU216HW,2013-06-08 23:24:00,
2013-06-08 16:29:00,106.9,64.5,29.60,WNW,302,3.2,5.4,26,0.00,,,0.00,WUHU216HW,2013-06-08 23:29:00,
2013-06-08 16:35:00,106.7,63.1,29.60,WNW,296,3.8,5.4,25,0.00,,,0.00,WUHU216HW,2013-06-08 23:35:00,
2013-06-08 16:40:00,106.6,64.1,29.60,WNW,287,4.4,6.7,26,0.00,,,0.00,WUHU216HW,2013-06-08 23:40:00,
2013-06-08 16:45:00,106.9,63.3,29.60,WNW,285,3.0,4.9,25,0.00,,,0.00,WUHU216HW,2013-06-08 23:45:00,
2013-06-08 16:50:00,107.1,63.5,29.60,West,263,2.0,3.4,25,0.00,,,0.00,WUHU216HW,2013-06-08 23:50:00,
2013-06-08 16:55:00,107.3,63.5,29.60,West,263,2.8,4.5,25,0.00,,,0.00,WUHU216HW,2013-06-08 23:55:00,
2013-06-08 17:00:00,107.1,63.5,29.59,SW,236,1.5,3.6,25,0.00,,,0.00,WUHU216HW,2013-06-09 00:00:00,
2013-06-08 17:05:00,106.9,63.3,29.59,SSW,195,2.0,3.8,25,0.00,,,0.00,WUHU216HW,2013-06-09 00:05:00,
2013-06-08 17:10:00,106.9,63.3,29.59,SSW,203,2.8,4.7,25,0.00,,,0.00,WUHU216HW,2013-06-09 00:10:00,
2013-06-08 17:15:00,106.7,63.1,29.59,SSW,205,2.8,4.7,25,0.00,,,0.00,WUHU216HW,2013-06-09 00:15:00,
2013-06-08 17:20:00,106.6,62.9,29.59,SW,214,1.8,4.0,25,0.00,,,0.00,WUHU216HW,2013-06-09 00:20:00,
2013-06-08 17:25:00,106.4,62.7,29.59,WSW,251,1.4,3.6,25,0.00,,,0.00,WUHU216HW,2013-06-09 00:25:00,
2013-06-08 17:30:00,106.4,62.7,29.59,SW,226,2.0,3.1,25,0.00,,,0.00,WUHU216HW,2013-06-09 00:30:00,
2013-06-08 17:35:00,106.4,62.7,29.59,SW,219,1.1,1.8,25,0.00,,,0.00,WUHU216HW,2013-06-09 00:35:00,
2013-06-08 17:40:00,106.4,63.9,29.59,WSW,256,1.4,2.5,26,0.00,,,0.00,WUHU216HW,2013-06-09 00:40:00,
2013-06-08 17:45:00,106.4,62.7,29.59,West,262,1.9,3.4,25,0.00,,,0.00,WUHU216HW,2013-06-09 00:45:00,
2013-06-08 17:50:00,106.2,63.7,29.59,West,279,3.3,4.7,26,0.00,,,0.00,WUHU216HW,2013-06-09 00:50:00,
2013-06-08 17:55:00,106.0,63.6,29.59,WNW,284,2.8,6.3,26,0.00,,,0.00,WUHU216HW,2013-06-09 00:55:00,
2013-06-08 18:00:00,105.8,63.5,29.59,West,269,3.2,5.8,26,0.00,,,0.00,WUHU216HW,2013-06-09 01:00:00,
2013-06-08 18:05:00,105.8,63.5,29.59,West,275,2.4,4.7,26,0.00,,,0.00,WUHU216HW,2013-06-09 01:05:00,
2013-06-08 18:13:00,105.7,64.4,29.59,WNW,296,3.2,4.0,27,0.00,,,0.00,WUHU216HW,2013-06-09 01:13:00,
2013-06-08 18:22:00,105.1,64.0,29.59,WNW,291,2.6,4.0,27,0.00,,,0.00,WUHU216HW,2013-06-09 01:22:00,
2013-06-08 18:31:00,104.6,63.5,29.59,NW,308,2.7,3.6,27,0.00,,,0.00,WUHU216HW,2013-06-09 01:31:00,
2013-06-08 18:40:00,104.4,63.5,29.59,WNW,296,2.6,3.6,27,0.00,,,0.00,WUHU216HW,2013-06-09 01:40:00,
2013-06-08 18:49:00,104.2,64.4,29.60,NW,312,2.4,4.0,28,0.00,,,0.00,WUHU216HW,2013-06-09 01:49:00,
2013-06-08 18:58:00,103.9,65.3,29.60,WNW,303,2.3,3.6,29,0.00,,,0.00,WUHU216HW,2013-06-09 01:58:00,
2013-06-08 19:07:00,103.7,65.2,29.60,WNW,287,1.3,2.7,29,0.00,,,0.00,WUHU216HW,2013-06-09 02:07:00,
2013-06-08 19:15:00,103.3,64.8,29.61,WSW,255,0.4,1.6,29,0.00,,,0.00,WUHU216HW,2013-06-09 02:15:00,
2013-06-08 19:24:00,102.6,66.2,29.61,South,189,0.8,1.1,31,0.00,,,0.00,WUHU216HW,2013-06-09 02:24:00,
2013-06-08 19:33:00,101.9,67.2,29.61,SE,144,0.4,0.7,33,0.00,,,0.00,WUHU216HW,2013-06-09 02:33:00,
2013-06-08 19:42:00,101.0,67.3,29.62,SSE,153,0.9,1.8,34,0.00,,,0.00,WUHU216HW,2013-06-09 02:42:00,
2013-06-08 19:51:00,100.1,67.3,29.62,SSE,147,0.6,1.1,35,0.00,,,0.00,WUHU216HW,2013-06-09 02:51:00,
2013-06-08 19:58:00,99.7,67.9,29.62,SE,140,0.3,0.7,36,0.00,,,0.00,WUHU216HW,2013-06-09 02:58:00,
2013-06-08 20:07:00,98.5,68.4,29.62,SE,135,0.4,0.4,38,0.00,,,0.00,WUHU216HW,2013-06-09 03:07:00,
2013-06-08 20:16:00,97.0,68.0,29.63,North,0,0.0,0.0,39,0.00,,,0.00,WUHU216HW,2013-06-09 03:16:00,
2013-06-08 20:25:00,95.6,68.1,29.63,North,0,0.0,0.0,41,0.00,,,0.00,WUHU216HW,2013-06-09 03:25:00,
2013-06-08 20:34:00,94.1,68.1,29.64,North,0,0.0,0.0,43,0.00,,,0.00,WUHU216HW,2013-06-09 03:34:00,
2013-06-08 20:43:00,93.2,68.0,29.64,North,0,0.0,0.0,44,0.00,,,0.00,WUHU216HW,2013-06-09 03:43:00,
2013-06-08 20:51:00,92.3,67.8,29.64,North,0,0.0,0.0,45,0.00,,,0.00,WUHU216HW,2013-06-09 03:51:00,
2013-06-08 21:00:00,91.8,68.0,29.65,North,0,0.0,0.0,46,0.00,,,0.00,WUHU216HW,2013-06-09 04:00:00,
2013-06-08 21:09:00,91.1,68.6,29.65,North,0,0.0,0.0,48,0.00,,,0.00,WUHU216HW,2013-06-09 04:09:00,
2013-06-08 21:18:00,90.4,68.0,29.66,North,0,0.0,0.0,48,0.00,,,0.00,WUHU216HW,2013-06-09 04:18:00,
2013-06-08 21:27:00,89.8,68.1,29.66,ENE,71,0.6,0.9,49,0.00,,,0.00,WUHU216HW,2013-06-09 04:27:00,
2013-06-08 21:36:00,88.9,68.0,29.67,South,180,2.3,4.3,50,0.00,,,0.00,WUHU216HW,2013-06-09 04:36:00,
2013-06-08 21:45:00,88.7,65.9,29.68,SSE,157,2.4,3.6,47,0.00,,,0.00,WUHU216HW,2013-06-09 04:45:00,
2013-06-08 21:54:00,88.4,64.9,29.68,SSE,167,1.1,1.8,46,0.00,,,0.00,WUHU216HW,2013-06-09 04:54:00,
2013-06-08 22:03:00,88.0,64.0,29.69,East,99,0.4,0.7,45,0.00,,,0.00,WUHU216HW,2013-06-09 05:03:00,
2013-06-08 22:11:00,87.1,63.2,29.69,ESE,119,0.6,1.3,45,0.00,,,0.00,WUHU216HW,2013-06-09 05:11:00,
2013-06-08 22:20:00,86.6,62.6,29.70,SE,139,0.6,1.1,45,0.00,,,0.00,WUHU216HW,2013-06-09 05:20:00,
2013-06-08 22:29:00,86.0,60.9,29.70,ESE,120,0.7,1.1,43,0.00,,,0.00,WUHU216HW,2013-06-09 05:29:00,
2013-06-08 22:38:00,86.0,60.9,29.70,ESE,121,0.6,1.1,43,0.00,,,0.00,WUHU216HW,2013-06-09 05:38:00,
2013-06-08 22:47:00,85.7,59.9,29.70,ESE,120,0.5,1.1,42,0.00,,,0.00,WUHU216HW,2013-06-09 05:47:00,
2013-06-08 22:56:00,85.1,59.5,29.71,ESE,123,0.7,1.3,42,0.00,,,0.00,WUHU216HW,2013-06-09 05:56:00,
2013-06-08 23:05:00,84.8,58.5,29.71,SE,131,0.4,0.7,41,0.00,,,0.00,WUHU216HW,2013-06-09 06:05:00,
2013-06-08 23:14:00,84.6,58.4,29.71,North,0,0.0,0.0,41,0.00,,,0.00,WUHU216HW,2013-06-09 06:14:00,
2013-06-08 23:23:00,83.9,58.3,29.71,North,0,0.0,0.0,42,0.00,,,0.00,WUHU216HW,2013-06-09 06:23:00,
2013-06-08 23:31:00,83.3,57.9,29.71,ESE,123,0.5,1.1,42,0.00,,,0.00,WUHU216HW,2013-06-09 06:31:00,
2013-06-08 23:40:00,83.0,58.2,29.71,SE,135,0.3,0.4,43,0.00,,,0.00,WUHU216HW,2013-06-09 06:40:00,
2013-06-08 23:49:00,82.3,58.1,29.71,SE,138,0.5,0.7,44,0.00,,,0.00,WUHU216HW,2013-06-09 06:49:00,
2013-06-08 23:58:00,82.3,57.5,29.72,ESE,113,0.5,1.1,43,0.00,,,0.00,WUHU216HW,2013-06-09 06:58:00,